createdAt,value
2023-11-11T00:00:21.605Z,61.78
2023-11-11T00:03:09.982Z,62.30
2023-11-11T00:05:38.139Z,62.75
2023-11-11T00:08:06.107Z,63.23
2023-11-11T00:10:34.924Z,64.02
2023-11-11T00:13:04.354Z,64.76
2023-11-11T00:15:34.964Z,65.42
2023-11-11T00:18:03.340Z,66.22
2023-11-11T00:20:31.530Z,66.75
2023-11-11T00:22:59.679Z,67.19
2023-11-11T00:25:27.686Z,67.87
2023-11-11T00:27:55.980Z,68.10
2023-11-11T00:30:24.100Z,68.44
2023-11-11T00:32:55.420Z,68.46
2023-11-11T00:35:23.528Z,68.04
2023-11-11T00:37:51.662Z,68.23
2023-11-11T00:40:19.648Z,68.68
2023-11-11T00:42:47.757Z,68.99
2023-11-11T00:45:16.015Z,69.01
2023-11-11T00:47:44.498Z,69.30
2023-11-11T00:50:12.634Z,69.70
2023-11-11T00:52:40.798Z,69.74
2023-11-11T00:55:09.182Z,69.93
2023-11-11T00:57:37.304Z,70.29
2023-11-11T01:00:06.617Z,70.31
2023-11-11T01:02:34.568Z,70.45
2023-11-11T01:05:02.493Z,70.67
2023-11-11T01:07:31.119Z,70.67
2023-11-11T01:10:00.010Z,70.89
2023-11-11T01:12:28.241Z,70.94
2023-11-11T01:14:56.494Z,71.13
2023-11-11T01:17:24.680Z,71.13
2023-11-11T01:19:52.718Z,71.06
2023-11-11T01:22:20.653Z,70.85
2023-11-11T01:24:49.021Z,71.04
2023-11-11T01:27:17.327Z,70.99
2023-11-11T01:29:45.267Z,70.93
2023-11-11T01:32:13.272Z,70.71
2023-11-11T01:34:41.404Z,70.80
2023-11-11T01:37:09.894Z,70.90
2023-11-11T01:39:38.142Z,70.89
2023-11-11T01:42:06.736Z,70.96
2023-11-11T01:44:34.746Z,70.90
2023-11-11T01:47:07.502Z,70.68
2023-11-11T01:49:36.097Z,70.69
2023-11-11T01:52:06.582Z,70.49
2023-11-11T01:54:36.181Z,70.72
2023-11-11T01:57:06.175Z,70.80
2023-11-11T01:59:36.807Z,70.83
2023-11-11T02:02:05.531Z,70.95
2023-11-11T02:04:34.948Z,70.90
2023-11-11T02:07:03.162Z,71.24
2023-11-11T02:09:31.256Z,71.06
2023-11-11T02:11:59.424Z,70.97
2023-11-11T02:14:27.693Z,71.00
2023-11-11T02:16:56.280Z,71.00
2023-11-11T02:19:24.346Z,70.96
2023-11-11T02:21:52.432Z,70.90
2023-11-11T02:24:22.530Z,70.78
2023-11-11T02:26:51.183Z,70.64
2023-11-11T02:29:19.140Z,70.62
2023-11-11T02:31:47.048Z,70.72
2023-11-11T02:34:15.289Z,70.60
2023-11-11T02:36:53.909Z,70.52
2023-11-11T02:39:28.912Z,70.38
2023-11-11T02:41:56.984Z,70.30
2023-11-11T02:44:26.241Z,70.46
2023-11-11T02:46:54.249Z,70.64
2023-11-11T02:49:22.855Z,70.72
2023-11-11T02:51:50.820Z,70.87
2023-11-11T02:54:18.991Z,71.02
2023-11-11T02:56:47.163Z,71.27
2023-11-11T02:59:15.235Z,71.50
2023-11-11T03:01:43.446Z,71.77
2023-11-11T03:04:13.499Z,71.71
2023-11-11T03:06:45.036Z,71.68
2023-11-11T03:09:13.369Z,71.57
2023-11-11T03:11:41.267Z,71.85
2023-11-11T03:14:09.493Z,71.79
2023-11-11T03:16:38.949Z,71.62
2023-11-11T03:19:08.076Z,71.64
2023-11-11T03:21:36.453Z,71.83
2023-11-11T03:24:06.026Z,71.72
2023-11-11T03:26:34.673Z,71.93
2023-11-11T03:29:03.054Z,72.00
2023-11-11T03:31:31.214Z,72.03
2023-11-11T03:33:59.694Z,71.73
2023-11-11T03:36:28.375Z,71.72
2023-11-11T03:38:56.415Z,71.60
2023-11-11T03:41:24.627Z,71.70
2023-11-11T03:43:53.010Z,71.82
2023-11-11T03:46:21.267Z,72.14
2023-11-11T03:48:49.343Z,72.01
2023-11-11T03:51:17.614Z,71.86
2023-11-11T03:53:45.583Z,72.02
2023-11-11T03:56:13.976Z,71.74
2023-11-11T03:58:42.275Z,71.87
2023-11-11T04:01:10.734Z,72.10
2023-11-11T04:03:40.995Z,72.13
2023-11-11T04:06:10.963Z,72.31
2023-11-11T04:08:41.008Z,72.13
2023-11-11T04:11:10.153Z,72.01
2023-11-11T04:13:42.102Z,72.16
2023-11-11T04:16:15.022Z,71.92
2023-11-11T04:18:43.340Z,72.11
2023-11-11T04:21:13.175Z,72.50
2023-11-11T04:23:44.252Z,72.48
2023-11-11T04:26:12.191Z,72.43
2023-11-11T04:28:44.246Z,72.42
2023-11-11T04:31:13.608Z,72.30
2023-11-11T04:33:41.554Z,72.39
2023-11-11T04:36:09.583Z,72.38
2023-11-11T04:38:38.686Z,72.38
2023-11-11T04:41:06.939Z,72.51
2023-11-11T04:43:36.172Z,72.18
2023-11-11T04:46:04.495Z,72.15
2023-11-11T04:48:32.687Z,72.20
2023-11-11T04:51:01.207Z,72.21
2023-11-11T04:53:29.472Z,72.29
2023-11-11T04:55:57.626Z,72.40
2023-11-11T04:58:25.935Z,72.55
2023-11-11T05:00:54.117Z,72.43
2023-11-11T05:03:22.348Z,72.48
2023-11-11T05:05:50.539Z,72.50
2023-11-11T05:08:18.787Z,72.76
2023-11-11T05:10:47.153Z,72.72
2023-11-11T05:13:16.014Z,72.58
2023-11-11T05:15:47.038Z,72.64
2023-11-11T05:18:15.466Z,72.74
2023-11-11T05:20:43.512Z,72.59
2023-11-11T05:23:11.895Z,72.45
2023-11-11T05:25:40.196Z,72.54
2023-11-11T05:28:08.811Z,72.62
2023-11-11T05:30:37.142Z,72.30
2023-11-11T05:33:06.682Z,72.64
2023-11-11T05:35:35.003Z,72.44
2023-11-11T05:38:03.038Z,72.66
2023-11-11T05:40:31.432Z,72.80
2023-11-11T05:43:01.642Z,72.81
2023-11-11T05:45:30.095Z,72.81
2023-11-11T05:47:58.254Z,72.95
2023-11-11T05:50:26.371Z,72.82
2023-11-11T05:52:54.509Z,72.92
2023-11-11T05:55:22.496Z,72.98
2023-11-11T05:57:50.675Z,73.02
2023-11-11T06:00:19.420Z,73.05
2023-11-11T06:02:47.696Z,73.29
2023-11-11T06:05:15.968Z,72.94
2023-11-11T06:07:43.973Z,72.95
2023-11-11T06:10:12.768Z,72.97
2023-11-11T06:12:41.082Z,72.90
2023-11-11T06:15:09.584Z,72.90
2023-11-11T06:17:37.942Z,73.05
2023-11-11T06:20:09.344Z,73.43
2023-11-11T06:22:37.555Z,73.46
2023-11-11T06:25:07.055Z,73.44
2023-11-11T06:27:35.885Z,73.55
2023-11-11T06:30:09.716Z,73.62
2023-11-11T06:32:38.050Z,73.66
2023-11-11T06:35:09.735Z,73.62
2023-11-11T06:37:37.988Z,73.35
2023-11-11T06:40:08.446Z,73.54
2023-11-11T06:42:41.962Z,73.50
2023-11-11T06:45:16.341Z,73.56
2023-11-11T06:47:44.788Z,73.57
2023-11-11T06:50:13.186Z,73.49
2023-11-11T06:52:41.338Z,73.44
2023-11-11T06:55:10.938Z,73.50
2023-11-11T06:57:38.985Z,73.46
2023-11-11T07:00:11.704Z,73.63
2023-11-11T07:02:39.895Z,73.87
2023-11-11T07:05:11.429Z,73.85
2023-11-11T07:07:42.985Z,73.98
2023-11-11T07:10:13.318Z,74.08
2023-11-11T07:12:42.427Z,73.93
2023-11-11T07:15:11.707Z,73.88
2023-11-11T07:17:42.963Z,73.88
2023-11-11T07:20:18.342Z,73.84
2023-11-11T07:22:46.909Z,73.56
2023-11-11T07:25:16.253Z,73.60
2023-11-11T07:27:45.077Z,73.71
2023-11-11T07:30:14.075Z,73.70
2023-11-11T07:32:53.211Z,73.80
2023-11-11T07:35:27.744Z,73.66
2023-11-11T07:37:56.329Z,73.65
2023-11-11T07:40:26.939Z,73.98
2023-11-11T07:42:58.075Z,73.66
2023-11-11T07:45:27.895Z,73.68
2023-11-11T07:47:56.983Z,73.65
2023-11-11T07:50:26.453Z,73.63
2023-11-11T07:52:56.663Z,73.50
2023-11-11T07:55:25.022Z,73.09
2023-11-11T08:00:25.849Z,73.09
2023-11-11T08:02:54.121Z,73.21
2023-11-11T08:05:24.671Z,73.56
2023-11-11T08:07:53.409Z,73.22
2023-11-11T08:10:22.977Z,72.23
2023-11-11T08:12:52.998Z,72.15
2023-11-11T08:15:21.686Z,72.23
2023-11-11T08:17:50.510Z,71.95
2023-11-11T08:20:19.886Z,71.63
2023-11-11T08:22:49.701Z,71.74
2023-11-11T08:25:17.872Z,71.32
2023-11-11T08:27:46.470Z,71.19
2023-11-11T08:30:14.711Z,70.97
2023-11-11T08:32:43.584Z,70.84
2023-11-11T08:35:15.866Z,70.90
2023-11-11T08:37:44.790Z,70.70
2023-11-11T08:40:14.695Z,70.42
2023-11-11T08:42:42.962Z,69.99
2023-11-11T08:45:14.905Z,69.94
2023-11-11T08:47:43.166Z,69.94
2023-11-11T08:50:13.153Z,69.63
2023-11-11T08:52:44.122Z,69.43
2023-11-11T08:55:13.267Z,69.45
2023-11-11T08:57:41.512Z,69.59
2023-11-11T09:00:13.283Z,69.67
2023-11-11T09:02:41.492Z,69.33
2023-11-11T09:05:11.125Z,69.09
2023-11-11T09:07:39.252Z,68.78
2023-11-11T09:10:07.849Z,68.88
2023-11-11T09:12:38.042Z,68.61
2023-11-11T09:15:06.706Z,68.48
2023-11-11T09:17:34.880Z,68.54
2023-11-11T09:20:03.004Z,68.56
2023-11-11T09:22:30.978Z,68.45
2023-11-11T09:24:59.215Z,68.47
2023-11-11T09:27:27.573Z,68.66
2023-11-11T09:29:55.656Z,68.85
2023-11-11T09:32:23.826Z,68.77
2023-11-11T09:34:52.009Z,68.85
2023-11-11T09:37:20.185Z,69.06
2023-11-11T09:39:48.393Z,69.01
2023-11-11T09:42:16.676Z,68.98
2023-11-11T09:47:19.712Z,68.46
2023-11-11T09:49:48.024Z,68.59
2023-11-11T09:52:17.392Z,68.43
2023-11-11T09:54:47.582Z,68.12
2023-11-11T09:57:18.363Z,67.88
2023-11-11T09:59:47.986Z,67.63
2023-11-11T10:02:16.723Z,67.35
2023-11-11T10:04:44.894Z,67.35
2023-11-11T10:07:13.758Z,67.41
2023-11-11T10:09:42.956Z,67.51
2023-11-11T10:12:11.497Z,67.54
2023-11-11T10:14:42.719Z,67.50
2023-11-11T10:17:12.584Z,67.42
2023-11-11T10:19:54.601Z,67.51
2023-11-11T10:22:27.409Z,67.61
2023-11-11T10:24:57.836Z,67.42
2023-11-11T10:27:29.042Z,67.63
2023-11-11T10:29:58.005Z,67.91
2023-11-11T10:32:28.874Z,67.83
2023-11-11T10:34:58.369Z,67.75
2023-11-11T10:37:26.512Z,67.89
2023-11-11T10:39:54.568Z,67.87
2023-11-11T10:42:23.164Z,67.79
2023-11-11T10:44:51.956Z,68.10
2023-11-11T10:47:20.269Z,68.04
2023-11-11T10:49:48.965Z,68.16
2023-11-11T10:52:20.212Z,68.17
2023-11-11T10:54:52.443Z,68.45
2023-11-11T10:57:21.705Z,68.71
2023-11-11T10:59:49.962Z,68.86
2023-11-11T11:02:19.395Z,68.80
2023-11-11T11:04:54.927Z,69.24
2023-11-11T11:07:29.364Z,69.54
2023-11-11T11:10:04.641Z,69.29
2023-11-11T11:12:39.752Z,69.21
2023-11-11T11:15:14.447Z,69.28
2023-11-11T11:17:45.794Z,69.32
2023-11-11T11:20:19.274Z,69.64
2023-11-11T11:22:50.720Z,69.60
2023-11-11T11:25:40.250Z,69.69
2023-11-11T11:28:11.176Z,69.43
2023-11-11T11:30:59.707Z,69.22
2023-11-11T11:33:32.569Z,69.25
2023-11-11T11:36:05.680Z,69.26
2023-11-11T11:38:39.837Z,69.43
2023-11-11T11:41:20.663Z,69.50
2023-11-11T11:43:54.435Z,69.56
2023-11-11T11:46:23.108Z,69.53
2023-11-11T11:48:52.291Z,69.93
2023-11-11T11:51:21.349Z,69.83
2023-11-11T11:53:54.704Z,70.08
2023-11-11T11:56:31.222Z,70.11
2023-11-11T11:59:03.367Z,69.76
2023-11-11T12:01:35.630Z,69.53
2023-11-11T12:04:05.160Z,69.52
2023-11-11T12:06:40.017Z,69.41
2023-11-11T12:09:13.359Z,69.36
2023-11-11T12:11:41.456Z,69.31
2023-11-11T12:14:10.806Z,69.30
2023-11-11T12:16:44.360Z,69.37
2023-11-11T12:19:18.273Z,69.77
2023-11-11T12:21:48.829Z,69.39
2023-11-11T12:24:18.384Z,69.51
2023-11-11T12:26:50.060Z,69.81
2023-11-11T12:29:20.373Z,69.95
2023-11-11T12:31:49.659Z,69.84
2023-11-11T12:34:26.196Z,69.62
2023-11-11T12:36:55.247Z,69.92
2023-11-11T12:39:26.650Z,70.13
2023-11-11T12:41:58.271Z,70.64
2023-11-11T12:44:27.413Z,70.59
2023-11-11T12:47:00.075Z,70.32
2023-11-11T12:49:29.895Z,70.25
2023-11-11T12:52:00.813Z,70.24
2023-11-11T12:54:32.809Z,70.37
2023-11-11T12:57:01.771Z,70.19
2023-11-11T12:59:29.831Z,70.21
2023-11-11T13:02:02.322Z,70.31
2023-11-11T13:04:34.366Z,70.39
2023-11-11T13:07:02.846Z,70.32
2023-11-11T13:09:42.940Z,70.17
2023-11-11T13:12:12.055Z,70.29
2023-11-11T13:14:44.805Z,70.50
2023-11-11T13:17:13.643Z,70.48
2023-11-11T13:19:41.901Z,70.74
2023-11-11T13:22:10.808Z,70.91
2023-11-11T13:24:39.262Z,70.82
2023-11-11T13:27:08.835Z,70.91
2023-11-11T13:29:37.307Z,70.84
2023-11-11T13:32:05.999Z,70.86
2023-11-11T13:34:34.936Z,70.91
2023-11-11T13:37:12.868Z,71.05
2023-11-11T13:39:52.741Z,71.44
2023-11-11T13:42:22.728Z,71.68
2023-11-11T13:44:51.544Z,71.88
2023-11-11T13:47:21.610Z,72.19
2023-11-11T13:49:49.705Z,72.15
2023-11-11T13:52:17.745Z,72.52
2023-11-11T13:54:46.103Z,72.81
2023-11-11T13:57:16.750Z,72.87
2023-11-11T13:59:44.912Z,73.08
2023-11-11T14:02:13.761Z,73.26
2023-11-11T14:04:47.142Z,73.68
2023-11-11T14:07:15.315Z,74.01
2023-11-11T14:09:43.323Z,74.66
2023-11-11T14:12:13.608Z,75.11
2023-11-11T14:14:43.044Z,75.31
2023-11-11T14:17:23.734Z,75.78
2023-11-11T14:19:53.473Z,76.15
2023-11-11T14:22:23.603Z,76.74
2023-11-11T14:24:51.763Z,77.00
2023-11-11T14:27:19.852Z,77.41
2023-11-11T14:29:48.614Z,77.69
2023-11-11T14:32:20.522Z,78.12
2023-11-11T14:34:48.617Z,78.10
2023-11-11T14:37:16.662Z,78.52
2023-11-11T14:39:46.666Z,78.84
2023-11-11T14:42:15.754Z,78.92
2023-11-11T14:44:43.808Z,79.41
2023-11-11T14:47:12.133Z,79.61
2023-11-11T14:49:40.229Z,79.82
2023-11-11T14:52:10.908Z,79.99
2023-11-11T14:54:41.608Z,79.93
2023-11-11T14:57:13.607Z,80.10
2023-11-11T14:59:41.653Z,79.99
2023-11-11T15:02:09.922Z,80.33
2023-11-11T15:04:38.215Z,80.44
2023-11-11T15:07:06.750Z,80.49
2023-11-11T15:09:34.985Z,80.75
2023-11-11T15:12:02.973Z,80.83
2023-11-11T15:14:31.207Z,80.84
2023-11-11T15:17:01.366Z,81.12
2023-11-11T15:19:29.514Z,81.04
2023-11-11T15:21:57.975Z,81.12
2023-11-11T15:24:29.543Z,81.13
2023-11-11T15:26:57.461Z,81.06
2023-11-11T15:29:25.374Z,81.24
2023-11-11T15:31:53.372Z,81.38
2023-11-11T15:34:21.651Z,81.59
2023-11-11T15:36:50.201Z,81.68
2023-11-11T15:39:24.026Z,81.50
2023-11-11T15:41:52.502Z,81.69
2023-11-11T15:44:20.494Z,82.05
2023-11-11T15:46:51.569Z,81.95
2023-11-11T15:49:21.445Z,82.02
2023-11-11T15:51:51.063Z,81.65
2023-11-11T15:54:19.191Z,81.62
2023-11-11T15:56:49.682Z,81.91
2023-11-11T15:59:19.090Z,81.86
2023-11-11T16:01:47.371Z,81.39
2023-11-11T16:04:16.647Z,81.64
2023-11-11T16:06:44.575Z,81.92
2023-11-11T16:09:18.014Z,81.99
2023-11-11T16:11:46.382Z,81.95
2023-11-11T16:14:14.597Z,82.34
2023-11-11T16:16:42.818Z,82.45
2023-11-11T16:19:11.144Z,82.43
2023-11-11T16:21:39.270Z,82.73
2023-11-11T16:24:20.496Z,82.78
2023-11-11T16:26:55.766Z,83.00
2023-11-11T16:29:23.963Z,83.29
2023-11-11T16:31:52.323Z,83.51
2023-11-11T16:34:22.346Z,83.53
2023-11-11T16:36:50.525Z,83.25
2023-11-11T16:39:20.433Z,83.03
2023-11-11T16:41:52.279Z,83.16
2023-11-11T16:44:22.028Z,82.96
2023-11-11T16:46:50.114Z,82.88
2023-11-11T16:49:18.232Z,83.18
2023-11-11T16:51:46.967Z,83.75
2023-11-11T16:54:15.155Z,83.64
2023-11-11T16:56:43.628Z,83.37
2023-11-11T16:59:13.162Z,83.29
2023-11-11T17:01:41.473Z,83.52
2023-11-11T17:04:10.520Z,84.27
2023-11-11T17:06:38.620Z,84.55
2023-11-11T17:09:12.265Z,84.16
2023-11-11T17:11:44.171Z,84.26
2023-11-11T17:14:12.758Z,84.38
2023-11-11T17:16:42.268Z,84.55
2023-11-11T17:19:10.708Z,84.58
2023-11-11T17:21:38.801Z,84.43
2023-11-11T17:24:07.821Z,84.66
2023-11-11T17:26:38.361Z,85.24
2023-11-11T17:29:06.470Z,85.17
2023-11-11T17:31:35.044Z,85.23
2023-11-11T17:34:03.300Z,85.14
2023-11-11T17:36:32.717Z,85.33
2023-11-11T17:39:00.983Z,85.64
2023-11-11T17:41:29.083Z,85.65
2023-11-11T17:43:57.586Z,86.04
2023-11-11T17:46:25.630Z,86.29
2023-11-11T17:48:54.879Z,86.52
2023-11-11T17:51:23.548Z,86.21
2023-11-11T17:53:51.930Z,85.89
2023-11-11T17:56:24.030Z,85.81
2023-11-11T17:58:52.597Z,85.90
2023-11-11T18:01:21.058Z,85.78
2023-11-11T18:03:49.492Z,86.15
2023-11-11T18:06:17.751Z,86.10
2023-11-11T18:08:47.074Z,86.03
2023-11-11T18:11:15.582Z,86.23
2023-11-11T18:13:43.705Z,86.44
2023-11-11T18:16:18.758Z,86.39
2023-11-11T18:18:47.516Z,86.69
2023-11-11T18:21:16.926Z,86.51
2023-11-11T18:23:47.741Z,86.22
2023-11-11T18:26:17.395Z,85.81
2023-11-11T18:28:47.712Z,85.68
2023-11-11T18:31:18.503Z,85.45
2023-11-11T18:33:46.902Z,85.51
2023-11-11T18:36:14.934Z,85.56
2023-11-11T18:38:44.290Z,86.14
2023-11-11T18:41:12.821Z,86.10
2023-11-11T18:43:40.920Z,86.50
2023-11-11T18:46:15.556Z,86.48
2023-11-11T18:48:43.626Z,86.20
2023-11-11T18:51:11.758Z,86.84
2023-11-11T18:53:40.079Z,87.02
2023-11-11T18:56:08.409Z,86.77
2023-11-11T18:58:36.610Z,86.56
2023-11-11T19:01:05.950Z,86.48
2023-11-11T19:03:36.071Z,86.72
2023-11-11T19:06:05.404Z,86.86
2023-11-11T19:08:33.469Z,86.50
2023-11-11T19:11:01.770Z,86.41
2023-11-11T19:13:29.655Z,86.50
2023-11-11T19:15:58.424Z,85.95
2023-11-11T19:18:26.408Z,86.17
2023-11-11T19:20:54.400Z,86.64
2023-11-11T19:23:23.045Z,86.95
2023-11-11T19:25:51.522Z,86.92
2023-11-11T19:28:19.474Z,87.25
2023-11-11T19:30:47.622Z,87.05
2023-11-11T19:33:16.140Z,87.08
2023-11-11T19:35:44.283Z,87.40
2023-11-11T19:38:12.392Z,87.22
2023-11-11T19:40:41.402Z,86.71
2023-11-11T19:43:09.569Z,86.85
2023-11-11T19:45:38.894Z,86.93
2023-11-11T19:48:07.331Z,86.62
2023-11-11T19:50:35.317Z,86.41
2023-11-11T19:53:03.302Z,86.31
2023-11-11T19:55:31.267Z,86.13
2023-11-11T19:57:59.730Z,86.40
2023-11-11T20:00:28.099Z,86.25
2023-11-11T20:02:56.023Z,85.95
2023-11-11T20:05:25.932Z,85.91
2023-11-11T20:07:54.270Z,85.81
2023-11-11T20:10:22.348Z,85.97
2023-11-11T20:12:55.222Z,86.06
2023-11-11T20:15:23.516Z,86.06
2023-11-11T20:17:51.794Z,86.26
2023-11-11T20:20:19.853Z,86.42
2023-11-11T20:22:48.219Z,86.15
2023-11-11T20:25:24.562Z,85.92
2023-11-11T20:27:56.388Z,85.90
2023-11-11T20:30:26.697Z,86.38
2023-11-11T20:32:54.924Z,86.16
2023-11-11T20:35:23.039Z,86.06
2023-11-11T20:37:51.032Z,85.86
2023-11-11T20:40:19.580Z,85.70
2023-11-11T20:42:51.670Z,85.64
2023-11-11T20:45:19.630Z,86.08
2023-11-11T20:47:47.700Z,86.07
2023-11-11T20:50:16.484Z,86.34
2023-11-11T20:52:45.869Z,86.61
2023-11-11T20:55:15.345Z,86.47
2023-11-11T20:57:43.631Z,85.65
2023-11-11T21:00:13.455Z,85.54
2023-11-11T21:02:42.415Z,85.78
2023-11-11T21:05:19.124Z,85.70
2023-11-11T21:07:47.472Z,85.81
2023-11-11T21:10:17.910Z,85.97
2023-11-11T21:12:50.853Z,86.66
2023-11-11T21:15:22.419Z,86.80
2023-11-11T21:17:51.834Z,87.01
2023-11-11T21:20:19.813Z,86.82
2023-11-11T21:22:51.284Z,87.02
2023-11-11T21:25:21.796Z,87.45
2023-11-11T21:27:49.933Z,87.35
2023-11-11T21:30:18.482Z,87.55
2023-11-11T21:32:47.332Z,87.58
2023-11-11T21:35:15.412Z,87.42
2023-11-11T21:37:43.516Z,86.52
2023-11-11T21:40:12.127Z,86.21
2023-11-11T21:42:40.382Z,86.30
2023-11-11T21:45:08.638Z,86.53
2023-11-11T21:47:38.000Z,86.84
2023-11-11T21:50:06.908Z,87.41
2023-11-11T21:52:38.147Z,87.51
2023-11-11T21:55:07.150Z,87.17
2023-11-11T21:57:37.753Z,87.14
2023-11-11T22:00:11.081Z,87.13
2023-11-11T22:02:39.323Z,87.28
2023-11-11T22:05:08.159Z,87.00
2023-11-11T22:07:36.207Z,87.28
2023-11-11T22:10:06.699Z,87.14
2023-11-11T22:12:34.703Z,86.38
2023-11-11T22:15:03.610Z,86.32
2023-11-11T22:17:33.202Z,86.20
2023-11-11T22:20:01.914Z,86.38
2023-11-11T22:22:29.874Z,86.63
2023-11-11T22:24:57.806Z,86.19
2023-11-11T22:27:27.110Z,86.46
2023-11-11T22:29:55.320Z,86.73
2023-11-11T22:32:24.187Z,86.66
2023-11-11T22:34:52.056Z,86.69
2023-11-11T22:37:20.823Z,86.39
2023-11-11T22:39:49.232Z,86.27
2023-11-11T22:42:17.122Z,86.36
2023-11-11T22:44:45.064Z,86.05
2023-11-11T22:47:13.369Z,85.95
2023-11-11T22:49:41.792Z,85.68
2023-11-11T22:52:09.916Z,84.87
2023-11-11T22:54:37.849Z,84.46
2023-11-11T22:57:05.938Z,84.19
2023-11-11T22:59:34.022Z,84.22
2023-11-11T23:02:02.020Z,84.81
2023-11-11T23:04:30.106Z,85.17
2023-11-11T23:06:58.037Z,85.38
2023-11-11T23:09:26.016Z,85.59
2023-11-11T23:11:55.045Z,85.36
2023-11-11T23:14:23.043Z,84.58
2023-11-11T23:16:51.359Z,84.33
2023-11-11T23:19:19.473Z,84.14
2023-11-11T23:21:47.734Z,83.61
2023-11-11T23:24:15.860Z,83.42
2023-11-11T23:26:44.279Z,83.07
2023-11-11T23:29:13.081Z,83.07
2023-11-11T23:31:43.312Z,82.61
2023-11-11T23:34:12.457Z,82.95
2023-11-11T23:36:40.564Z,83.10
2023-11-11T23:39:09.289Z,83.00
2023-11-11T23:41:37.485Z,82.85
2023-11-11T23:44:10.103Z,82.83
2023-11-11T23:46:43.963Z,82.76
2023-11-11T23:49:12.561Z,83.05
2023-11-11T23:51:40.533Z,83.06
2023-11-11T23:54:08.978Z,83.44
2023-11-11T23:56:36.991Z,83.20
2023-11-11T23:59:05.430Z,83.32
